sensor_id;sensor_type;location;lat;lon;timestamp;temperature;humidity
4596;DHT22;2310;49.978;8.742;2023-08-08T00:02:35;15.00;99.90
4596;DHT22;2310;49.978;8.742;2023-08-08T00:06:37;15.00;99.90
4596;DHT22;2310;49.978;8.742;2023-08-08T00:10:39;15.00;99.90
4596;DHT22;2310;49.978;8.742;2023-08-08T00:14:40;14.90;99.90
4596;DHT22;2310;49.978;8.742;2023-08-08T00:18:41;14.90;99.90
4596;DHT22;2310;49.978;8.742;2023-08-08T00:22:43;14.80;99.90
4596;DHT22;2310;49.978;8.742;2023-08-08T00:26:44;14.80;99.90
4596;DHT22;2310;49.978;8.742;2023-08-08T00:30:45;14.70;99.90
4596;DHT22;2310;49.978;8.742;2023-08-08T00:34:47;14.80;99.90
4596;DHT22;2310;49.978;8.742;2023-08-08T00:38:48;14.80;99.90
4596;DHT22;2310;49.978;8.742;2023-08-08T00:42:50;14.80;99.90
4596;DHT22;2310;49.978;8.742;2023-08-08T00:46:51;14.90;99.90
4596;DHT22;2310;49.978;8.742;2023-08-08T00:50:53;15.00;99.90
4596;DHT22;2310;49.978;8.742;2023-08-08T00:54:54;15.00;99.90
4596;DHT22;2310;49.978;8.742;2023-08-08T00:58:56;14.80;99.90
4596;DHT22;2310;49.978;8.742;2023-08-08T01:02:57;14.80;99.90
4596;DHT22;2310;49.978;8.742;2023-08-08T01:07:20;14.80;99.90
4596;DHT22;2310;49.978;8.742;2023-08-08T01:11:25;14.90;99.90
4596;DHT22;2310;49.978;8.742;2023-08-08T01:15:28;14.90;99.90
4596;DHT22;2310;49.978;8.742;2023-08-08T01:19:31;14.90;99.90
4596;DHT22;2310;49.978;8.742;2023-08-08T01:23:52;14.80;99.90
4596;DHT22;2310;49.978;8.742;2023-08-08T01:27:50;14.90;99.90
4596;DHT22;2310;49.978;8.742;2023-08-08T01:31:51;14.80;99.90
4596;DHT22;2310;49.978;8.742;2023-08-08T01:36:03;14.90;99.90
4596;DHT22;2310;49.978;8.742;2023-08-08T01:40:05;14.90;99.90
4596;DHT22;2310;49.978;8.742;2023-08-08T01:44:07;14.90;99.90
4596;DHT22;2310;49.978;8.742;2023-08-08T01:48:10;14.90;99.90
4596;DHT22;2310;49.978;8.742;2023-08-08T01:52:12;14.90;99.90
4596;DHT22;2310;49.978;8.742;2023-08-08T01:56:13;14.90;99.90
4596;DHT22;2310;49.978;8.742;2023-08-08T02:00:14;14.90;99.90
4596;DHT22;2310;49.978;8.742;2023-08-08T02:04:16;14.80;99.90
4596;DHT22;2310;49.978;8.742;2023-08-08T02:08:18;14.90;99.90
4596;DHT22;2310;49.978;8.742;2023-08-08T02:12:19;15.00;99.90
4596;DHT22;2310;49.978;8.742;2023-08-08T02:16:21;14.90;99.90
4596;DHT22;2310;49.978;8.742;2023-08-08T02:20:22;15.00;99.90
4596;DHT22;2310;49.978;8.742;2023-08-08T02:24:23;15.00;99.90
4596;DHT22;2310;49.978;8.742;2023-08-08T02:28:25;14.80;99.90
4596;DHT22;2310;49.978;8.742;2023-08-08T02:32:26;14.90;99.90
4596;DHT22;2310;49.978;8.742;2023-08-08T02:36:27;15.00;99.90
4596;DHT22;2310;49.978;8.742;2023-08-08T02:40:29;15.00;99.90
4596;DHT22;2310;49.978;8.742;2023-08-08T02:44:30;15.00;99.90
4596;DHT22;2310;49.978;8.742;2023-08-08T02:48:32;15.00;99.90
4596;DHT22;2310;49.978;8.742;2023-08-08T02:52:33;15.10;99.90
4596;DHT22;2310;49.978;8.742;2023-08-08T02:56:34;15.00;99.90
4596;DHT22;2310;49.978;8.742;2023-08-08T03:00:36;14.80;99.90
4596;DHT22;2310;49.978;8.742;2023-08-08T03:04:37;14.80;99.90
4596;DHT22;2310;49.978;8.742;2023-08-08T03:08:38;14.80;99.90
4596;DHT22;2310;49.978;8.742;2023-08-08T03:12:40;14.90;99.90
4596;DHT22;2310;49.978;8.742;2023-08-08T03:16:42;14.90;99.90
4596;DHT22;2310;49.978;8.742;2023-08-08T03:20:44;14.90;99.90
4596;DHT22;2310;49.978;8.742;2023-08-08T03:24:45;14.80;99.90
4596;DHT22;2310;49.978;8.742;2023-08-08T03:28:47;14.80;99.90
4596;DHT22;2310;49.978;8.742;2023-08-08T03:32:50;14.70;99.90
4596;DHT22;2310;49.978;8.742;2023-08-08T03:36:51;14.70;99.90
4596;DHT22;2310;49.978;8.742;2023-08-08T03:40:53;14.70;99.90
4596;DHT22;2310;49.978;8.742;2023-08-08T03:44:54;14.60;99.90
4596;DHT22;2310;49.978;8.742;2023-08-08T03:48:56;14.70;99.90
4596;DHT22;2310;49.978;8.742;2023-08-08T03:52:57;14.60;99.90
4596;DHT22;2310;49.978;8.742;2023-08-08T03:56:58;14.70;99.90
4596;DHT22;2310;49.978;8.742;2023-08-08T04:01:01;14.50;99.90
4596;DHT22;2310;49.978;8.742;2023-08-08T04:05:02;14.50;99.90
4596;DHT22;2310;49.978;8.742;2023-08-08T04:09:04;14.40;99.90
4596;DHT22;2310;49.978;8.742;2023-08-08T04:13:05;14.40;99.90
4596;DHT22;2310;49.978;8.742;2023-08-08T04:17:06;14.40;99.90
4596;DHT22;2310;49.978;8.742;2023-08-08T04:21:08;14.40;99.90
4596;DHT22;2310;49.978;8.742;2023-08-08T04:25:09;14.20;99.90
4596;DHT22;2310;49.978;8.742;2023-08-08T04:29:11;14.10;99.90
4596;DHT22;2310;49.978;8.742;2023-08-08T04:33:12;13.90;99.90
4596;DHT22;2310;49.978;8.742;2023-08-08T04:37:13;14.10;99.90
4596;DHT22;2310;49.978;8.742;2023-08-08T04:41:15;14.00;99.90
4596;DHT22;2310;49.978;8.742;2023-08-08T04:45:16;14.00;99.90
4596;DHT22;2310;49.978;8.742;2023-08-08T04:49:18;14.10;99.90
4596;DHT22;2310;49.978;8.742;2023-08-08T04:53:20;14.40;99.90
4596;DHT22;2310;49.978;8.742;2023-08-08T04:57:22;14.30;99.90
4596;DHT22;2310;49.978;8.742;2023-08-08T05:01:23;14.40;99.90
4596;DHT22;2310;49.978;8.742;2023-08-08T05:05:24;14.70;99.90
4596;DHT22;2310;49.978;8.742;2023-08-08T05:09:26;14.90;99.90
4596;DHT22;2310;49.978;8.742;2023-08-08T05:13:27;15.30;99.90
4596;DHT22;2310;49.978;8.742;2023-08-08T05:17:30;15.60;99.90
4596;DHT22;2310;49.978;8.742;2023-08-08T05:21:34;15.80;99.90
4596;DHT22;2310;49.978;8.742;2023-08-08T05:25:35;16.00;99.90
4596;DHT22;2310;49.978;8.742;2023-08-08T05:29:37;15.80;99.90
4596;DHT22;2310;49.978;8.742;2023-08-08T05:33:39;15.90;99.90
4596;DHT22;2310;49.978;8.742;2023-08-08T05:37:40;15.80;99.90
4596;DHT22;2310;49.978;8.742;2023-08-08T05:41:42;15.90;99.90
4596;DHT22;2310;49.978;8.742;2023-08-08T05:45:44;15.80;99.90
4596;DHT22;2310;49.978;8.742;2023-08-08T05:49:45;15.80;99.90
4596;DHT22;2310;49.978;8.742;2023-08-08T05:53:47;15.70;99.90
4596;DHT22;2310;49.978;8.742;2023-08-08T05:57:48;15.90;99.90
4596;DHT22;2310;49.978;8.742;2023-08-08T06:01:49;15.90;99.90
4596;DHT22;2310;49.978;8.742;2023-08-08T06:05:51;15.90;99.90
4596;DHT22;2310;49.978;8.742;2023-08-08T06:09:52;15.90;99.90
4596;DHT22;2310;49.978;8.742;2023-08-08T06:13:54;15.90;99.90
4596;DHT22;2310;49.978;8.742;2023-08-08T06:17:56;15.90;99.90
4596;DHT22;2310;49.978;8.742;2023-08-08T06:21:58;16.00;99.90
4596;DHT22;2310;49.978;8.742;2023-08-08T06:26:00;16.20;99.90
4596;DHT22;2310;49.978;8.742;2023-08-08T06:30:02;16.10;99.90
4596;DHT22;2310;49.978;8.742;2023-08-08T06:34:04;16.20;99.90
4596;DHT22;2310;49.978;8.742;2023-08-08T06:38:05;16.40;99.90
4596;DHT22;2310;49.978;8.742;2023-08-08T06:42:08;16.10;99.90
4596;DHT22;2310;49.978;8.742;2023-08-08T06:46:10;16.20;99.90
4596;DHT22;2310;49.978;8.742;2023-08-08T06:50:11;16.10;99.90
4596;DHT22;2310;49.978;8.742;2023-08-08T06:54:12;16.50;99.90
4596;DHT22;2310;49.978;8.742;2023-08-08T06:58:14;16.70;99.90
4596;DHT22;2310;49.978;8.742;2023-08-08T07:02:15;16.70;99.90
4596;DHT22;2310;49.978;8.742;2023-08-08T07:06:17;16.90;99.90
4596;DHT22;2310;49.978;8.742;2023-08-08T07:10:19;17.30;99.90
4596;DHT22;2310;49.978;8.742;2023-08-08T07:14:20;17.50;99.90
4596;DHT22;2310;49.978;8.742;2023-08-08T07:18:22;17.60;99.90
4596;DHT22;2310;49.978;8.742;2023-08-08T07:22:23;17.50;99.90
4596;DHT22;2310;49.978;8.742;2023-08-08T07:26:24;18.00;99.90
4596;DHT22;2310;49.978;8.742;2023-08-08T07:30:26;18.10;99.90
4596;DHT22;2310;49.978;8.742;2023-08-08T07:34:27;17.70;99.90
4596;DHT22;2310;49.978;8.742;2023-08-08T07:38:29;17.60;99.90
4596;DHT22;2310;49.978;8.742;2023-08-08T07:42:30;17.80;99.90
4596;DHT22;2310;49.978;8.742;2023-08-08T07:46:32;18.30;99.90
4596;DHT22;2310;49.978;8.742;2023-08-08T07:50:33;18.80;99.90
4596;DHT22;2310;49.978;8.742;2023-08-08T07:54:34;19.20;99.90
4596;DHT22;2310;49.978;8.742;2023-08-08T07:58:36;19.00;99.90
4596;DHT22;2310;49.978;8.742;2023-08-08T08:02:42;19.30;99.90
4596;DHT22;2310;49.978;8.742;2023-08-08T08:06:41;19.10;99.90
4596;DHT22;2310;49.978;8.742;2023-08-08T08:10:44;19.40;99.90
4596;DHT22;2310;49.978;8.742;2023-08-08T08:14:47;19.20;99.90
4596;DHT22;2310;49.978;8.742;2023-08-08T08:18:48;19.20;99.90
4596;DHT22;2310;49.978;8.742;2023-08-08T08:22:49;19.50;99.90
4596;DHT22;2310;49.978;8.742;2023-08-08T08:26:51;20.00;99.90
4596;DHT22;2310;49.978;8.742;2023-08-08T08:30:53;19.90;99.90
4596;DHT22;2310;49.978;8.742;2023-08-08T08:34:54;19.90;99.90
4596;DHT22;2310;49.978;8.742;2023-08-08T08:38:55;20.00;99.90
4596;DHT22;2310;49.978;8.742;2023-08-08T08:42:57;19.80;99.90
4596;DHT22;2310;49.978;8.742;2023-08-08T08:47:03;20.30;99.90
4596;DHT22;2310;49.978;8.742;2023-08-08T08:51:05;20.70;99.90
4596;DHT22;2310;49.978;8.742;2023-08-08T08:55:07;20.50;99.90
4596;DHT22;2310;49.978;8.742;2023-08-08T08:59:09;20.80;99.90
4596;DHT22;2310;49.978;8.742;2023-08-08T09:03:10;20.80;99.90
4596;DHT22;2310;49.978;8.742;2023-08-08T09:07:12;20.90;97.60
4596;DHT22;2310;49.978;8.742;2023-08-08T09:11:13;20.90;99.70
4596;DHT22;2310;49.978;8.742;2023-08-08T09:15:15;21.00;97.70
4596;DHT22;2310;49.978;8.742;2023-08-08T09:19:16;21.00;86.50
4596;DHT22;2310;49.978;8.742;2023-08-08T09:23:20;21.00;92.70
4596;DHT22;2310;49.978;8.742;2023-08-08T09:27:22;21.60;83.70
4596;DHT22;2310;49.978;8.742;2023-08-08T09:31:26;21.40;83.20
4596;DHT22;2310;49.978;8.742;2023-08-08T09:35:29;21.10;81.20
4596;DHT22;2310;49.978;8.742;2023-08-08T09:39:31;21.30;82.70
4596;DHT22;2310;49.978;8.742;2023-08-08T09:43:33;21.60;88.60
4596;DHT22;2310;49.978;8.742;2023-08-08T09:47:35;21.90;81.90
4596;DHT22;2310;49.978;8.742;2023-08-08T09:51:36;22.10;82.20
4596;DHT22;2310;49.978;8.742;2023-08-08T09:55:38;22.90;77.20
4596;DHT22;2310;49.978;8.742;2023-08-08T09:59:39;23.00;73.20
4596;DHT22;2310;49.978;8.742;2023-08-08T10:03:41;23.40;68.50
4596;DHT22;2310;49.978;8.742;2023-08-08T10:07:45;23.30;69.90
4596;DHT22;2310;49.978;8.742;2023-08-08T10:11:46;23.70;70.60
4596;DHT22;2310;49.978;8.742;2023-08-08T10:15:49;24.00;66.40
4596;DHT22;2310;49.978;8.742;2023-08-08T10:19:53;24.30;65.90
4596;DHT22;2310;49.978;8.742;2023-08-08T10:24:09;24.30;65.60
4596;DHT22;2310;49.978;8.742;2023-08-08T10:28:12;24.20;64.30
4596;DHT22;2310;49.978;8.742;2023-08-08T10:32:22;23.70;62.40
4596;DHT22;2310;49.978;8.742;2023-08-08T10:36:22;23.60;66.60
4596;DHT22;2310;49.978;8.742;2023-08-08T10:40:31;23.10;65.50
4596;DHT22;2310;49.978;8.742;2023-08-08T10:44:31;23.30;66.10
4596;DHT22;2310;49.978;8.742;2023-08-08T10:48:32;23.50;67.70
4596;DHT22;2310;49.978;8.742;2023-08-08T10:56:56;23.10;66.90
4596;DHT22;2310;49.978;8.742;2023-08-08T11:00:58;23.20;68.70
4596;DHT22;2310;49.978;8.742;2023-08-08T11:05:00;23.90;66.60
4596;DHT22;2310;49.978;8.742;2023-08-08T11:09:05;23.90;62.30
4596;DHT22;2310;49.978;8.742;2023-08-08T11:13:07;24.00;63.70
4596;DHT22;2310;49.978;8.742;2023-08-08T11:17:10;23.90;62.80
4596;DHT22;2310;49.978;8.742;2023-08-08T11:21:12;24.00;63.90
4596;DHT22;2310;49.978;8.742;2023-08-08T11:25:15;23.80;62.60
4596;DHT22;2310;49.978;8.742;2023-08-08T11:29:16;23.50;62.90
4596;DHT22;2310;49.978;8.742;2023-08-08T11:33:18;23.90;63.40
4596;DHT22;2310;49.978;8.742;2023-08-08T11:37:19;24.00;60.80
4596;DHT22;2310;49.978;8.742;2023-08-08T11:41:23;24.40;60.60
4596;DHT22;2310;49.978;8.742;2023-08-08T11:45:25;24.50;60.20
4596;DHT22;2310;49.978;8.742;2023-08-08T11:49:26;24.10;60.50
4596;DHT22;2310;49.978;8.742;2023-08-08T11:53:28;24.20;59.40
4596;DHT22;2310;49.978;8.742;2023-08-08T11:57:31;24.40;58.70
4596;DHT22;2310;49.978;8.742;2023-08-08T12:01:33;24.70;56.60
4596;DHT22;2310;49.978;8.742;2023-08-08T12:05:38;24.70;57.00
4596;DHT22;2310;49.978;8.742;2023-08-08T12:09:40;24.50;54.70
4596;DHT22;2310;49.978;8.742;2023-08-08T12:13:42;24.20;53.10
4596;DHT22;2310;49.978;8.742;2023-08-08T12:17:45;24.40;54.30
4596;DHT22;2310;49.978;8.742;2023-08-08T12:21:47;24.60;56.20
4596;DHT22;2310;49.978;8.742;2023-08-08T12:25:49;24.60;54.00
4596;DHT22;2310;49.978;8.742;2023-08-08T12:29:51;24.40;54.50
4596;DHT22;2310;49.978;8.742;2023-08-08T12:33:53;24.50;56.40
4596;DHT22;2310;49.978;8.742;2023-08-08T12:37:56;24.70;56.10
4596;DHT22;2310;49.978;8.742;2023-08-08T12:41:57;24.60;55.40
4596;DHT22;2310;49.978;8.742;2023-08-08T12:45:58;24.70;55.60
4596;DHT22;2310;49.978;8.742;2023-08-08T12:50:00;24.90;55.20
4596;DHT22;2310;49.978;8.742;2023-08-08T12:54:01;24.80;55.00
4596;DHT22;2310;49.978;8.742;2023-08-08T12:58:03;24.60;54.50
4596;DHT22;2310;49.978;8.742;2023-08-08T13:02:04;24.90;55.60
4596;DHT22;2310;49.978;8.742;2023-08-08T13:06:06;24.80;53.30
4596;DHT22;2310;49.978;8.742;2023-08-08T13:10:08;24.70;53.90
4596;DHT22;2310;49.978;8.742;2023-08-08T13:14:09;24.40;52.20
4596;DHT22;2310;49.978;8.742;2023-08-08T13:18:10;24.40;52.00
4596;DHT22;2310;49.978;8.742;2023-08-08T13:22:12;24.60;52.40
4596;DHT22;2310;49.978;8.742;2023-08-08T13:26:13;24.90;51.90
4596;DHT22;2310;49.978;8.742;2023-08-08T13:30:16;24.70;50.60
4596;DHT22;2310;49.978;8.742;2023-08-08T13:34:18;24.90;52.50
4596;DHT22;2310;49.978;8.742;2023-08-08T13:38:19;24.70;50.50
4596;DHT22;2310;49.978;8.742;2023-08-08T13:42:21;24.60;51.10
4596;DHT22;2310;49.978;8.742;2023-08-08T13:46:23;25.10;51.10
4596;DHT22;2310;49.978;8.742;2023-08-08T13:50:24;25.10;50.00
4596;DHT22;2310;49.978;8.742;2023-08-08T13:54:25;24.90;49.70
4596;DHT22;2310;49.978;8.742;2023-08-08T13:58:27;24.60;49.40
4596;DHT22;2310;49.978;8.742;2023-08-08T14:02:28;24.40;50.10
4596;DHT22;2310;49.978;8.742;2023-08-08T14:06:31;24.40;49.90
4596;DHT22;2310;49.978;8.742;2023-08-08T14:10:32;24.30;50.00
4596;DHT22;2310;49.978;8.742;2023-08-08T14:14:33;24.20;50.20
4596;DHT22;2310;49.978;8.742;2023-08-08T14:18:35;23.90;50.40
4596;DHT22;2310;49.978;8.742;2023-08-08T14:22:36;23.70;51.60
4596;DHT22;2310;49.978;8.742;2023-08-08T14:26:38;23.80;51.80
4596;DHT22;2310;49.978;8.742;2023-08-08T14:30:39;23.90;51.70
4596;DHT22;2310;49.978;8.742;2023-08-08T14:34:41;23.70;52.40
4596;DHT22;2310;49.978;8.742;2023-08-08T14:38:42;23.40;52.40
4596;DHT22;2310;49.978;8.742;2023-08-08T14:42:44;23.10;53.40
4596;DHT22;2310;49.978;8.742;2023-08-08T14:46:45;22.80;53.20
4596;DHT22;2310;49.978;8.742;2023-08-08T14:50:47;22.50;54.90
4596;DHT22;2310;49.978;8.742;2023-08-08T14:54:48;22.30;55.50
4596;DHT22;2310;49.978;8.742;2023-08-08T14:58:53;22.50;55.70
4596;DHT22;2310;49.978;8.742;2023-08-08T15:02:54;22.40;56.70
4596;DHT22;2310;49.978;8.742;2023-08-08T15:06:56;22.40;57.20
4596;DHT22;2310;49.978;8.742;2023-08-08T15:10:57;22.10;58.20
4596;DHT22;2310;49.978;8.742;2023-08-08T15:14:58;22.00;59.60
4596;DHT22;2310;49.978;8.742;2023-08-08T15:19:01;21.80;60.80
4596;DHT22;2310;49.978;8.742;2023-08-08T15:23:03;21.60;63.50
4596;DHT22;2310;49.978;8.742;2023-08-08T15:27:04;21.40;65.50
4596;DHT22;2310;49.978;8.742;2023-08-08T15:31:06;21.60;68.80
4596;DHT22;2310;49.978;8.742;2023-08-08T15:35:07;21.60;70.80
4596;DHT22;2310;49.978;8.742;2023-08-08T15:39:09;21.70;73.50
4596;DHT22;2310;49.978;8.742;2023-08-08T15:43:12;21.60;76.90
4596;DHT22;2310;49.978;8.742;2023-08-08T15:47:14;21.50;79.60
4596;DHT22;2310;49.978;8.742;2023-08-08T15:51:15;21.50;81.90
4596;DHT22;2310;49.978;8.742;2023-08-08T15:55:17;21.60;80.40
4596;DHT22;2310;49.978;8.742;2023-08-08T15:59:18;21.70;82.20
4596;DHT22;2310;49.978;8.742;2023-08-08T16:03:19;21.70;79.50
4596;DHT22;2310;49.978;8.742;2023-08-08T16:07:21;21.50;85.00
4596;DHT22;2310;49.978;8.742;2023-08-08T16:11:22;21.50;90.40
4596;DHT22;2310;49.978;8.742;2023-08-08T16:15:24;21.80;91.60
4596;DHT22;2310;49.978;8.742;2023-08-08T16:19:25;22.00;90.50
4596;DHT22;2310;49.978;8.742;2023-08-08T16:23:27;22.30;87.50
4596;DHT22;2310;49.978;8.742;2023-08-08T16:27:28;22.50;84.70
4596;DHT22;2310;49.978;8.742;2023-08-08T16:31:29;22.20;85.50
4596;DHT22;2310;49.978;8.742;2023-08-08T16:35:34;22.30;87.40
4596;DHT22;2310;49.978;8.742;2023-08-08T16:39:39;22.10;90.90
4596;DHT22;2310;49.978;8.742;2023-08-08T16:43:41;22.30;90.10
4596;DHT22;2310;49.978;8.742;2023-08-08T16:47:42;22.30;90.00
4596;DHT22;2310;49.978;8.742;2023-08-08T16:51:43;22.40;91.60
4596;DHT22;2310;49.978;8.742;2023-08-08T16:55:45;22.20;92.30
4596;DHT22;2310;49.978;8.742;2023-08-08T16:59:47;21.90;93.20
4596;DHT22;2310;49.978;8.742;2023-08-08T17:03:48;21.80;92.50
4596;DHT22;2310;49.978;8.742;2023-08-08T17:07:49;21.90;96.40
4596;DHT22;2310;49.978;8.742;2023-08-08T17:11:52;21.80;95.30
4596;DHT22;2310;49.978;8.742;2023-08-08T17:15:54;21.80;94.20
4596;DHT22;2310;49.978;8.742;2023-08-08T17:19:55;21.70;95.40
4596;DHT22;2310;49.978;8.742;2023-08-08T17:23:56;21.60;97.10
4596;DHT22;2310;49.978;8.742;2023-08-08T17:27:58;21.80;96.70
4596;DHT22;2310;49.978;8.742;2023-08-08T17:31:59;21.60;96.90
4596;DHT22;2310;49.978;8.742;2023-08-08T17:36:01;21.40;97.90
4596;DHT22;2310;49.978;8.742;2023-08-08T17:40:05;21.50;97.70
4596;DHT22;2310;49.978;8.742;2023-08-08T17:44:08;21.80;97.70
4596;DHT22;2310;49.978;8.742;2023-08-08T17:48:11;21.70;98.30
4596;DHT22;2310;49.978;8.742;2023-08-08T17:52:12;21.70;99.30
4596;DHT22;2310;49.978;8.742;2023-08-08T17:56:14;21.60;99.90
4596;DHT22;2310;49.978;8.742;2023-08-08T18:00:15;21.40;99.90
4596;DHT22;2310;49.978;8.742;2023-08-08T18:04:18;21.50;99.90
4596;DHT22;2310;49.978;8.742;2023-08-08T18:08:19;21.30;99.90
4596;DHT22;2310;49.978;8.742;2023-08-08T18:12:21;21.30;99.90
4596;DHT22;2310;49.978;8.742;2023-08-08T18:16:22;21.20;99.90
4596;DHT22;2310;49.978;8.742;2023-08-08T18:20:23;21.30;99.90
4596;DHT22;2310;49.978;8.742;2023-08-08T18:24:25;20.90;99.90
4596;DHT22;2310;49.978;8.742;2023-08-08T18:28:26;21.00;99.90
4596;DHT22;2310;49.978;8.742;2023-08-08T18:32:28;21.00;99.90
4596;DHT22;2310;49.978;8.742;2023-08-08T18:36:29;21.00;99.90
4596;DHT22;2310;49.978;8.742;2023-08-08T18:40:31;21.00;99.90
4596;DHT22;2310;49.978;8.742;2023-08-08T18:44:32;20.80;99.90
4596;DHT22;2310;49.978;8.742;2023-08-08T18:48:33;20.80;99.90
4596;DHT22;2310;49.978;8.742;2023-08-08T18:52:35;20.80;99.90
4596;DHT22;2310;49.978;8.742;2023-08-08T18:56:36;20.80;99.90
4596;DHT22;2310;49.978;8.742;2023-08-08T19:00:38;20.70;99.90
4596;DHT22;2310;49.978;8.742;2023-08-08T19:04:39;20.60;99.90
4596;DHT22;2310;49.978;8.742;2023-08-08T19:08:40;20.40;99.90
4596;DHT22;2310;49.978;8.742;2023-08-08T19:12:44;20.60;99.90
4596;DHT22;2310;49.978;8.742;2023-08-08T19:16:45;20.60;99.90
4596;DHT22;2310;49.978;8.742;2023-08-08T19:20:46;20.70;99.90
4596;DHT22;2310;49.978;8.742;2023-08-08T19:24:49;20.70;99.90
4596;DHT22;2310;49.978;8.742;2023-08-08T19:28:51;20.70;99.90
4596;DHT22;2310;49.978;8.742;2023-08-08T19:32:52;20.50;99.90
4596;DHT22;2310;49.978;8.742;2023-08-08T19:36:53;20.60;99.90
4596;DHT22;2310;49.978;8.742;2023-08-08T19:40:55;20.60;99.90
4596;DHT22;2310;49.978;8.742;2023-08-08T19:44:56;20.50;99.90
4596;DHT22;2310;49.978;8.742;2023-08-08T19:48:58;20.60;99.90
4596;DHT22;2310;49.978;8.742;2023-08-08T19:52:59;20.40;99.90
4596;DHT22;2310;49.978;8.742;2023-08-08T19:57:00;20.10;99.90
4596;DHT22;2310;49.978;8.742;2023-08-08T20:01:03;20.10;99.90
4596;DHT22;2310;49.978;8.742;2023-08-08T20:05:05;20.10;99.90
4596;DHT22;2310;49.978;8.742;2023-08-08T20:09:07;20.00;99.90
4596;DHT22;2310;49.978;8.742;2023-08-08T20:13:08;19.90;99.90
4596;DHT22;2310;49.978;8.742;2023-08-08T20:17:11;19.90;99.90
4596;DHT22;2310;49.978;8.742;2023-08-08T20:21:13;19.60;99.90
4596;DHT22;2310;49.978;8.742;2023-08-08T20:25:14;19.60;99.90
4596;DHT22;2310;49.978;8.742;2023-08-08T20:29:16;19.40;99.90
4596;DHT22;2310;49.978;8.742;2023-08-08T20:33:18;19.40;99.90
4596;DHT22;2310;49.978;8.742;2023-08-08T20:37:19;19.40;99.90
4596;DHT22;2310;49.978;8.742;2023-08-08T20:41:20;19.50;99.90
4596;DHT22;2310;49.978;8.742;2023-08-08T20:45:22;19.60;99.90
4596;DHT22;2310;49.978;8.742;2023-08-08T20:49:23;19.70;99.90
4596;DHT22;2310;49.978;8.742;2023-08-08T20:53:25;19.50;99.90
4596;DHT22;2310;49.978;8.742;2023-08-08T20:57:26;19.40;99.90
4596;DHT22;2310;49.978;8.742;2023-08-08T21:01:28;19.50;99.90
4596;DHT22;2310;49.978;8.742;2023-08-08T21:05:29;19.40;99.90
4596;DHT22;2310;49.978;8.742;2023-08-08T21:09:30;19.20;99.90
4596;DHT22;2310;49.978;8.742;2023-08-08T21:13:32;19.20;99.90
4596;DHT22;2310;49.978;8.742;2023-08-08T21:17:33;19.30;99.90
4596;DHT22;2310;49.978;8.742;2023-08-08T21:21:34;19.20;99.90
4596;DHT22;2310;49.978;8.742;2023-08-08T21:25:36;19.00;99.90
4596;DHT22;2310;49.978;8.742;2023-08-08T21:29:37;19.20;99.90
4596;DHT22;2310;49.978;8.742;2023-08-08T21:33:38;19.00;99.90
4596;DHT22;2310;49.978;8.742;2023-08-08T21:37:40;18.90;99.90
4596;DHT22;2310;49.978;8.742;2023-08-08T21:41:41;18.90;99.90
4596;DHT22;2310;49.978;8.742;2023-08-08T21:45:42;18.80;99.90
4596;DHT22;2310;49.978;8.742;2023-08-08T21:49:44;18.80;99.90
4596;DHT22;2310;49.978;8.742;2023-08-08T21:53:45;18.60;99.90
4596;DHT22;2310;49.978;8.742;2023-08-08T21:57:46;18.50;99.90
4596;DHT22;2310;49.978;8.742;2023-08-08T22:01:49;18.30;99.90
4596;DHT22;2310;49.978;8.742;2023-08-08T22:05:50;18.20;99.90
4596;DHT22;2310;49.978;8.742;2023-08-08T22:09:52;18.30;99.90
4596;DHT22;2310;49.978;8.742;2023-08-08T22:13:53;18.20;99.90
4596;DHT22;2310;49.978;8.742;2023-08-08T22:17:54;18.20;99.90
4596;DHT22;2310;49.978;8.742;2023-08-08T22:21:58;18.00;99.90
4596;DHT22;2310;49.978;8.742;2023-08-08T22:25:59;17.90;99.90
4596;DHT22;2310;49.978;8.742;2023-08-08T22:30:00;17.80;99.90
4596;DHT22;2310;49.978;8.742;2023-08-08T22:34:02;17.80;99.90
4596;DHT22;2310;49.978;8.742;2023-08-08T22:38:04;17.60;99.90
4596;DHT22;2310;49.978;8.742;2023-08-08T22:42:05;17.70;99.90
4596;DHT22;2310;49.978;8.742;2023-08-08T22:46:07;17.50;99.90
4596;DHT22;2310;49.978;8.742;2023-08-08T22:50:09;17.60;99.90
4596;DHT22;2310;49.978;8.742;2023-08-08T22:54:10;17.50;99.90
4596;DHT22;2310;49.978;8.742;2023-08-08T22:58:12;17.40;99.90
4596;DHT22;2310;49.978;8.742;2023-08-08T23:02:14;17.50;99.90
4596;DHT22;2310;49.978;8.742;2023-08-08T23:06:15;17.20;99.90
4596;DHT22;2310;49.978;8.742;2023-08-08T23:10:17;17.10;99.90
4596;DHT22;2310;49.978;8.742;2023-08-08T23:14:18;17.20;99.90
4596;DHT22;2310;49.978;8.742;2023-08-08T23:18:20;17.00;99.90
4596;DHT22;2310;49.978;8.742;2023-08-08T23:22:21;16.70;99.90
4596;DHT22;2310;49.978;8.742;2023-08-08T23:26:22;16.60;99.90
4596;DHT22;2310;49.978;8.742;2023-08-08T23:30:24;16.50;99.90
4596;DHT22;2310;49.978;8.742;2023-08-08T23:34:26;16.70;99.90
4596;DHT22;2310;49.978;8.742;2023-08-08T23:38:27;16.40;99.90
4596;DHT22;2310;49.978;8.742;2023-08-08T23:42:28;16.50;99.90
4596;DHT22;2310;49.978;8.742;2023-08-08T23:46:30;16.40;99.90
4596;DHT22;2310;49.978;8.742;2023-08-08T23:50:31;16.70;99.90
4596;DHT22;2310;49.978;8.742;2023-08-08T23:54:32;16.70;99.90
4596;DHT22;2310;49.978;8.742;2023-08-08T23:58:34;17.00;99.90
